createdAt,value
2022-09-23T00:01:01.695Z,12.30
2022-09-23T00:06:16.348Z,11.90
2022-09-23T00:11:25.079Z,11.50
2022-09-23T00:16:32.774Z,12.90
2022-09-23T00:21:36.217Z,12.40
2022-09-23T00:26:38.985Z,13.90
2022-09-23T00:31:42.357Z,13.60
2022-09-23T00:36:45.260Z,12.50
2022-09-23T00:41:48.036Z,12.60
2022-09-23T00:46:50.875Z,12.30
2022-09-23T00:51:59.058Z,12.60
2022-09-23T00:57:05.423Z,12.10
2022-09-23T01:02:10.027Z,12.50
2022-09-23T01:07:13.807Z,12.00
2022-09-23T01:12:29.448Z,12.10
2022-09-23T01:17:44.509Z,12.30
2022-09-23T01:23:24.918Z,11.70
2022-09-23T01:29:20.580Z,11.40
2022-09-23T01:34:51.196Z,11.00
2022-09-23T01:40:21.507Z,9.80
2022-09-23T01:45:27.401Z,12.50
2022-09-23T01:50:56.474Z,11.90
2022-09-23T01:56:05.414Z,11.10
2022-09-23T02:01:11.597Z,12.10
2022-09-23T02:06:21.035Z,11.90
2022-09-23T02:11:24.779Z,10.70
2022-09-23T02:16:45.258Z,11.90
2022-09-23T02:21:55.559Z,13.10
2022-09-23T02:27:31.421Z,11.70
2022-09-23T02:32:54.811Z,12.30
2022-09-23T02:38:19.298Z,12.60
2022-09-23T02:43:35.619Z,13.10
2022-09-23T02:48:47.308Z,12.80
2022-09-23T02:53:50.137Z,12.40
2022-09-23T02:58:54.730Z,11.90
2022-09-23T03:04:31.707Z,12.80
2022-09-23T03:09:53.325Z,13.80
2022-09-23T03:15:05.838Z,13.60
2022-09-23T03:20:15.489Z,13.30
2022-09-23T03:25:22.427Z,14.00
2022-09-23T03:30:26.579Z,15.30
2022-09-23T03:35:33.717Z,13.90
2022-09-23T03:40:45.905Z,13.90
2022-09-23T03:45:49.136Z,13.10
2022-09-23T03:50:53.165Z,14.40
2022-09-23T03:55:57.277Z,15.20
2022-09-23T04:01:00.733Z,15.40
2022-09-23T04:06:03.865Z,15.30
2022-09-23T04:11:06.896Z,14.70
2022-09-23T04:16:09.845Z,15.90
2022-09-23T04:21:12.806Z,14.90
2022-09-23T04:26:15.596Z,14.90
2022-09-23T04:31:18.446Z,15.50
2022-09-23T04:36:22.039Z,16.10
2022-09-23T04:41:24.917Z,16.50
2022-09-23T04:46:28.325Z,16.50
2022-09-23T04:51:31.260Z,17.30
2022-09-23T04:56:34.074Z,16.80
2022-09-23T05:01:38.431Z,17.10
2022-09-23T05:06:45.229Z,16.50
2022-09-23T05:11:48.303Z,15.30
2022-09-23T05:16:51.249Z,16.90
2022-09-23T05:21:54.019Z,16.90
2022-09-23T05:26:56.852Z,17.30
2022-09-23T05:32:00.183Z,18.60
2022-09-23T05:37:05.088Z,17.30
2022-09-23T05:42:10.477Z,18.10
2022-09-23T05:47:16.956Z,17.40
2022-09-23T05:52:20.762Z,17.20
2022-09-23T05:57:24.052Z,17.70
2022-09-23T06:02:26.896Z,17.90
2022-09-23T06:07:31.281Z,18.00
2022-09-23T06:12:35.372Z,15.80
2022-09-23T06:17:38.235Z,16.00
2022-09-23T06:22:41.026Z,14.60
2022-09-23T06:27:44.310Z,15.20
2022-09-23T06:32:53.504Z,15.40
2022-09-23T06:37:56.439Z,14.80
2022-09-23T06:43:00.720Z,14.10
2022-09-23T06:48:05.002Z,20.60
2022-09-23T06:53:07.979Z,15.40
2022-09-23T06:58:11.038Z,15.00
2022-09-23T07:03:13.849Z,14.70
2022-09-23T07:08:16.657Z,12.20
2022-09-23T07:13:19.809Z,13.50
2022-09-23T07:18:26.090Z,11.90
2022-09-23T07:23:28.875Z,15.60
2022-09-23T07:28:32.298Z,10.90
2022-09-23T07:33:37.058Z,10.90
2022-09-23T07:38:45.242Z,9.40
2022-09-23T07:43:49.071Z,13.70
2022-09-23T07:48:53.262Z,11.40
2022-09-23T07:53:56.768Z,11.20
2022-09-23T07:59:04.343Z,10.50
2022-09-23T08:04:15.946Z,9.90
2022-09-23T08:09:23.766Z,12.70
2022-09-23T08:14:27.071Z,13.30
2022-09-23T08:19:29.894Z,13.90
2022-09-23T08:24:32.722Z,13.60
2022-09-23T08:29:35.715Z,13.50
2022-09-23T08:34:38.673Z,12.70
2022-09-23T08:39:41.632Z,10.90
2022-09-23T08:44:55.347Z,10.20
2022-09-23T08:50:18.120Z,9.20
2022-09-23T08:55:29.796Z,8.10
2022-09-23T09:00:46.300Z,5.60
2022-09-23T09:05:54.348Z,4.70
2022-09-23T09:10:58.532Z,5.40
2022-09-23T09:16:36.533Z,5.90
2022-09-23T09:21:47.982Z,7.20
2022-09-23T09:26:50.972Z,15.30
2022-09-23T09:31:53.906Z,8.60
2022-09-23T09:37:31.854Z,7.30
2022-09-23T09:42:40.981Z,6.80
2022-09-23T09:47:53.908Z,5.40
2022-09-23T09:53:25.659Z,6.60
2022-09-23T09:58:35.449Z,3.60
2022-09-23T10:03:44.042Z,3.80
2022-09-23T10:09:10.670Z,3.50
2022-09-23T10:14:17.853Z,3.20
2022-09-23T10:19:29.349Z,3.30
2022-09-23T10:24:36.446Z,3.50
2022-09-23T10:29:48.200Z,2.20
2022-09-23T10:35:13.518Z,2.20
2022-09-23T10:40:36.904Z,1.70
2022-09-23T10:46:04.163Z,1.70
2022-09-23T10:51:29.841Z,1.60
2022-09-23T10:56:41.790Z,1.40
2022-09-23T11:02:12.337Z,1.60
2022-09-23T11:07:41.446Z,1.70
2022-09-23T11:12:55.734Z,1.10
2022-09-23T11:18:10.811Z,1.80
2022-09-23T11:23:32.602Z,1.70
2022-09-23T11:28:46.866Z,1.20
2022-09-23T11:33:58.659Z,1.40
2022-09-23T11:39:07.935Z,1.20
2022-09-23T11:44:26.329Z,1.10
2022-09-23T11:49:57.939Z,1.00
2022-09-23T11:55:11.074Z,1.30
2022-09-23T12:00:26.834Z,2.50
2022-09-23T12:05:45.941Z,1.70
2022-09-23T12:11:22.202Z,1.10
2022-09-23T12:16:43.803Z,1.20
2022-09-23T12:22:05.856Z,1.00
2022-09-23T12:27:21.626Z,1.30
2022-09-23T12:32:25.242Z,1.30
2022-09-23T12:37:34.207Z,1.30
2022-09-23T12:42:44.730Z,1.40
2022-09-23T12:47:48.627Z,1.40
2022-09-23T12:52:51.504Z,1.30
2022-09-23T12:57:54.332Z,1.30
2022-09-23T13:03:18.994Z,1.50
2022-09-23T13:08:25.075Z,4.90
2022-09-23T13:13:41.749Z,1.90
2022-09-23T13:19:05.566Z,1.60
2022-09-23T13:24:14.491Z,1.90
2022-09-23T13:29:24.215Z,2.60
2022-09-23T13:34:33.553Z,1.60
2022-09-23T13:39:36.706Z,1.50
2022-09-23T13:44:40.920Z,1.00
2022-09-23T13:49:43.965Z,1.30
2022-09-23T13:54:49.915Z,2.00
2022-09-23T13:59:53.174Z,1.50
2022-09-23T14:04:58.553Z,1.50
2022-09-23T14:15:14.221Z,1.70
2022-09-23T14:20:20.284Z,1.60
2022-09-23T14:25:23.294Z,2.00
2022-09-23T14:30:26.590Z,1.90
2022-09-23T14:35:42.306Z,1.70
2022-09-23T14:40:54.769Z,2.10
2022-09-23T14:45:59.320Z,1.90
2022-09-23T14:51:06.815Z,2.10
2022-09-23T14:56:20.461Z,1.60
2022-09-23T15:01:31.092Z,1.40
2022-09-23T15:06:37.305Z,1.90
2022-09-23T15:11:40.870Z,1.90
2022-09-23T15:16:43.968Z,27.00
2022-09-23T15:21:53.017Z,4.30
2022-09-23T15:26:58.133Z,2.30
2022-09-23T15:32:01.320Z,2.00
2022-09-23T15:37:04.467Z,2.00
2022-09-23T15:42:10.295Z,1.90
2022-09-23T15:47:18.689Z,2.10
2022-09-23T15:52:22.917Z,2.60
2022-09-23T15:57:26.139Z,2.90
2022-09-23T16:02:29.660Z,2.80
2022-09-23T16:07:32.747Z,2.70
2022-09-23T16:12:37.026Z,3.50
2022-09-23T16:17:39.885Z,3.50
2022-09-23T16:22:42.863Z,3.90
2022-09-23T16:27:45.744Z,4.30
2022-09-23T16:32:48.571Z,4.00
2022-09-23T16:37:52.907Z,4.40
2022-09-23T16:42:58.425Z,4.70
2022-09-23T16:53:04.713Z,4.60
2022-09-23T16:58:07.950Z,4.60
2022-09-23T17:03:31.390Z,3.90
2022-09-23T17:08:34.577Z,4.60
2022-09-23T17:13:42.447Z,4.90
2022-09-23T17:18:45.547Z,4.10
2022-09-23T17:23:48.572Z,3.90
2022-09-23T17:28:54.428Z,4.60
2022-09-23T17:33:57.497Z,4.80
2022-09-23T17:39:00.410Z,4.70
2022-09-23T17:44:04.816Z,5.20
2022-09-23T17:49:08.572Z,5.20
2022-09-23T17:54:12.215Z,5.80
2022-09-23T17:59:15.102Z,5.70
2022-09-23T18:04:18.374Z,5.80
2022-09-23T18:09:21.427Z,6.90
2022-09-23T18:14:24.352Z,6.80
2022-09-23T18:19:27.890Z,7.00
2022-09-23T18:24:33.587Z,6.80
2022-09-23T18:29:38.731Z,6.50
2022-09-23T18:34:41.725Z,6.80
2022-09-23T18:39:44.831Z,6.40
2022-09-23T18:44:50.024Z,6.70
2022-09-23T18:50:11.819Z,6.80
2022-09-23T18:55:15.263Z,7.00
2022-09-23T19:00:18.335Z,7.90
2022-09-23T19:05:21.315Z,9.20
2022-09-23T19:10:24.491Z,8.40
2022-09-23T19:15:27.705Z,8.90
2022-09-23T19:20:30.771Z,10.90
2022-09-23T19:25:36.417Z,10.10
2022-09-23T19:30:40.041Z,9.50
2022-09-23T19:35:51.477Z,9.10
2022-09-23T19:40:55.410Z,9.00
2022-09-23T19:45:58.281Z,9.40
2022-09-23T19:51:03.149Z,8.90
2022-09-23T19:56:06.495Z,9.70
2022-09-23T20:01:11.987Z,9.30
2022-09-23T20:06:16.611Z,9.20
2022-09-23T20:11:27.598Z,9.60
2022-09-23T20:16:34.358Z,9.30
2022-09-23T20:21:37.644Z,10.20
2022-09-23T20:26:59.169Z,10.50
2022-09-23T20:32:02.972Z,10.90
2022-09-23T20:37:06.220Z,10.10
2022-09-23T20:42:09.348Z,10.40
2022-09-23T20:47:14.178Z,10.40
2022-09-23T20:52:20.337Z,10.80
2022-09-23T20:57:23.210Z,10.20
2022-09-23T21:02:27.539Z,10.70
2022-09-23T21:07:32.119Z,10.30
2022-09-23T21:12:35.380Z,12.50
2022-09-23T21:17:38.216Z,11.70
2022-09-23T21:22:41.176Z,12.10
2022-09-23T21:27:45.110Z,13.80
2022-09-23T21:32:48.098Z,12.40
2022-09-23T21:37:50.976Z,13.50
2022-09-23T21:42:59.070Z,13.40
2022-09-23T21:48:02.482Z,13.10
2022-09-23T21:53:06.830Z,13.40
2022-09-23T21:58:09.681Z,15.00
2022-09-23T22:03:12.586Z,14.20
2022-09-23T22:08:15.358Z,12.80
2022-09-23T22:13:18.275Z,12.70
2022-09-23T22:18:21.078Z,12.60
2022-09-23T22:23:24.242Z,12.10
2022-09-23T22:28:45.421Z,12.10
2022-09-23T22:33:50.135Z,12.40
2022-09-23T22:38:59.207Z,12.80
2022-09-23T22:44:03.437Z,13.40
2022-09-23T22:49:07.565Z,13.50
2022-09-23T22:54:11.261Z,13.80
2022-09-23T22:59:14.408Z,13.90
2022-09-23T23:04:17.645Z,13.30
2022-09-23T23:09:20.723Z,13.70
2022-09-23T23:14:23.719Z,12.70
2022-09-23T23:19:26.538Z,12.90
2022-09-23T23:24:29.568Z,13.30
2022-09-23T23:29:32.457Z,13.80
2022-09-23T23:34:35.333Z,12.30
2022-09-23T23:39:38.157Z,11.80
2022-09-23T23:44:41.091Z,11.40
2022-09-23T23:49:43.988Z,12.30
2022-09-23T23:54:46.960Z,12.80
2022-09-23T23:59:49.797Z,12.00
